Terminal Aerodrome Forecast
Issued by NWS Sterling, VA

Home | Current Version | Previous Version | Text Only | Print | Product List | Glossary On
Versions: 1 2 3 4 5 6 7 8 9 10 11 12 13 14 15 16 17 18 19 20 21 22 23 24
000
FTUS41 KLWX 252100 AAA
TAFBWI
TAF AMD
KBWI 252101Z 2521/2624 28004KT P6SM SCT150 BKN250
     FM260600 35006KT P6SM OVC110
     FM260900 02008KT P6SM -RA OVC060
     FM261200 03010KT 3SM RA OVC025
     FM261500 03011KT 1SM RASN OVC003
     FM262100 33010KT 3SM -RASN OVC008
     FM262300 33009KT P6SM OVC008=

USA.gov is the U.S. government's official web portal to all federal, state and local government web resources and services.